Time;durP1;ratioP1;P1;durP2;ratioP2;P2;SDS_P1;SDS_P2;PMS_P1;PMS_P2;Temp;Humidity;BMP_temperature;BMP_pressure;BME280_temperature;BME280_humidity;BME280_pressure;Samples;Min_cycle;Max_cycle;Signal;HPM_P1;HPM_P2
2024/02/26 00:01:36;;;;;;;9.33;4.93;;;3.30;99.90;;;;;;4188495;28;20865;-78
2024/02/26 00:03:41;;;;;;;10.90;5.17;;;3.30;99.90;;;;;;4194715;28;20425;-79
2024/02/26 00:05:43;;;;;;;9.57;5.00;;;3.30;99.90;;;;;;4186366;28;21004;-78
2024/02/26 00:07:45;;;;;;;8.40;4.50;;;3.30;99.90;;;;;;4196139;28;20445;-78
2024/02/26 00:09:49;;;;;;;10.23;5.27;;;3.30;99.90;;;;;;4196091;28;20454;-79
2024/02/26 00:11:51;;;;;;;10.03;5.00;;;3.30;99.90;;;;;;4191303;28;20543;-78
2024/02/26 00:13:53;;;;;;;11.70;5.60;;;3.20;99.90;;;;;;4192258;28;20547;-77
2024/02/26 00:15:55;;;;;;;9.73;5.47;;;3.20;99.90;;;;;;4186495;28;20465;-78
2024/02/26 00:17:57;;;;;;;9.87;5.67;;;3.30;99.90;;;;;;4184912;28;20501;-78
2024/02/26 00:20:00;;;;;;;9.90;5.47;;;3.20;99.90;;;;;;4186514;28;20455;-78
2024/02/26 00:22:02;;;;;;;9.77;5.70;;;3.30;99.90;;;;;;4188154;28;20853;-78
2024/02/26 00:24:04;;;;;;;13.03;6.07;;;3.20;99.90;;;;;;4187679;28;20470;-78
2024/02/26 00:26:07;;;;;;;15.10;7.20;;;3.10;99.90;;;;;;4180426;28;20481;-78
2024/02/26 00:28:13;;;;;;;13.03;6.67;;;3.10;99.90;;;;;;4185913;28;20455;-78
2024/02/26 00:30:15;;;;;;;14.63;7.63;;;3.10;99.90;;;;;;4184262;28;20498;-78
2024/02/26 00:32:17;;;;;;;14.63;7.43;;;3.10;99.90;;;;;;4190493;28;20542;-78
2024/02/26 00:34:19;;;;;;;15.80;7.87;;;3.00;99.90;;;;;;4184490;28;20488;-78
2024/02/26 00:36:21;;;;;;;15.23;7.10;;;3.10;99.90;;;;;;4187270;28;21019;-78
2024/02/26 00:38:22;;;;;;;17.43;8.63;;;3.10;99.90;;;;;;4187806;28;20489;-78
2024/02/26 00:40:24;;;;;;;14.67;8.03;;;3.10;99.90;;;;;;4185952;28;20437;-78
2024/02/26 00:42:25;;;;;;;17.73;8.27;;;3.10;99.90;;;;;;4187897;28;20690;-78
2024/02/26 00:44:28;;;;;;;19.20;9.03;;;3.10;99.90;;;;;;4191020;28;20494;-78
2024/02/26 00:46:29;;;;;;;18.30;8.80;;;3.10;99.90;;;;;;4188690;28;20219;-78
2024/02/26 00:48:31;;;;;;;17.23;9.40;;;3.10;99.90;;;;;;4186550;28;20465;-78
2024/02/26 00:50:33;;;;;;;19.63;9.17;;;3.00;99.90;;;;;;4192756;28;20216;-78
2024/02/26 00:52:38;;;;;;;19.17;8.97;;;3.00;99.90;;;;;;4193308;28;20528;-78
2024/02/26 00:54:40;;;;;;;17.27;9.73;;;3.00;99.90;;;;;;4190185;28;21020;-78
2024/02/26 00:56:42;;;;;;;21.97;10.13;;;3.00;99.90;;;;;;4194751;28;20465;-78
2024/02/26 00:58:44;;;;;;;19.03;9.47;;;3.00;99.90;;;;;;4185230;28;20448;-78
2024/02/26 01:00:50;;;;;;;17.50;9.13;;;3.00;99.90;;;;;;4182453;28;20457;-78
2024/02/26 01:02:52;;;;;;;19.47;9.57;;;3.00;99.90;;;;;;4188214;28;20449;-78
2024/02/26 01:04:54;;;;;;;19.70;9.43;;;3.00;99.90;;;;;;4185948;28;20468;-78
2024/02/26 01:06:58;;;;;;;20.20;9.50;;;3.00;99.90;;;;;;4192277;28;20441;-78
2024/02/26 01:09:00;;;;;;;18.70;9.40;;;3.00;99.90;;;;;;4185457;28;20548;-78
2024/02/26 01:11:02;;;;;;;18.37;9.67;;;3.00;99.90;;;;;;4185840;28;20454;-78
2024/02/26 01:13:07;;;;;;;21.93;9.73;;;3.00;99.90;;;;;;4188264;28;20463;-78
2024/02/26 01:15:10;;;;;;;17.67;9.13;;;3.00;99.90;;;;;;4185191;28;20488;-78
2024/02/26 01:17:13;;;;;;;19.33;10.10;;;3.00;99.90;;;;;;4189791;28;20462;-78
2024/02/26 01:19:16;;;;;;;22.60;10.03;;;3.00;99.90;;;;;;4188103;28;20496;-78
2024/02/26 01:21:18;;;;;;;19.67;10.43;;;3.00;99.90;;;;;;4188199;28;20945;-77
2024/02/26 01:23:19;;;;;;;19.90;9.77;;;3.00;99.90;;;;;;4187381;28;20445;-77
2024/02/26 01:25:21;;;;;;;18.93;9.43;;;3.00;99.90;;;;;;4190428;28;20461;-78
2024/02/26 01:27:26;;;;;;;18.17;9.93;;;3.00;99.90;;;;;;4186994;28;20199;-77
2024/02/26 01:29:28;;;;;;;21.83;10.43;;;3.00;99.90;;;;;;4188007;28;21034;-77
2024/02/26 01:31:30;;;;;;;22.37;10.47;;;2.90;99.90;;;;;;4190578;28;20473;-77
2024/02/26 01:33:33;;;;;;;24.67;11.47;;;2.90;99.90;;;;;;4185539;28;21032;-77
2024/02/26 01:35:35;;;;;;;21.40;10.73;;;2.90;99.90;;;;;;4184686;28;20457;-78
2024/02/26 01:37:36;;;;;;;21.90;10.30;;;2.90;99.90;;;;;;4184250;28;20528;-77
2024/02/26 01:39:40;;;;;;;21.77;10.10;;;2.90;99.90;;;;;;4192983;28;20443;-77
2024/02/26 01:41:42;;;;;;;21.33;10.93;;;2.90;99.90;;;;;;4193534;28;20448;-77
2024/02/26 01:43:44;;;;;;;23.33;11.60;;;2.90;99.90;;;;;;4186509;28;20863;-78
2024/02/26 01:45:46;;;;;;;21.23;10.37;;;2.90;99.90;;;;;;4183655;28;20446;-77
2024/02/26 01:47:50;;;;;;;22.50;10.40;;;2.90;99.90;;;;;;4187703;28;20449;-77
2024/02/26 01:49:54;;;;;;;22.43;10.60;;;2.90;99.90;;;;;;4187635;28;20448;-77
2024/02/26 01:51:58;;;;;;;17.73;9.80;;;2.90;99.90;;;;;;4188426;28;20550;-77
2024/02/26 01:54:01;;;;;;;23.97;10.97;;;2.90;99.90;;;;;;4183050;28;20502;-77
2024/02/26 01:56:04;;;;;;;21.77;10.57;;;2.80;99.90;;;;;;4183864;28;20540;-77
2024/02/26 01:58:06;;;;;;;19.93;9.90;;;2.90;99.90;;;;;;4192189;28;20487;-78
2024/02/26 02:00:10;;;;;;;21.73;10.17;;;2.90;99.90;;;;;;4189011;28;20910;-77
2024/02/26 02:02:13;;;;;;;23.97;10.27;;;2.90;99.90;;;;;;4187270;28;20446;-77
2024/02/26 02:04:18;;;;;;;19.33;10.37;;;2.80;99.90;;;;;;4195486;28;20841;-77
2024/02/26 02:06:22;;;;;;;20.87;10.07;;;2.80;99.90;;;;;;4187897;28;20433;-77
2024/02/26 02:08:25;;;;;;;19.30;10.23;;;2.80;99.90;;;;;;4183563;28;20452;-77
2024/02/26 02:10:28;;;;;;;20.77;10.87;;;2.80;99.90;;;;;;4186506;28;20484;-78
2024/02/26 02:12:32;;;;;;;18.53;9.93;;;2.80;99.90;;;;;;4180424;28;20484;-78
2024/02/26 02:14:36;;;;;;;21.57;10.70;;;2.80;99.90;;;;;;4185988;28;20508;-78
2024/02/26 02:16:40;;;;;;;20.07;9.80;;;2.90;99.90;;;;;;4182854;28;21097;-78
2024/02/26 02:18:42;;;;;;;19.20;9.90;;;2.80;99.90;;;;;;4198458;28;20455;-78
2024/02/26 02:20:45;;;;;;;18.73;9.47;;;2.80;99.90;;;;;;4200962;28;20489;-77
2024/02/26 02:22:47;;;;;;;18.70;9.60;;;2.80;99.90;;;;;;4198150;28;20544;-77
2024/02/26 02:24:50;;;;;;;15.20;8.60;;;2.80;99.90;;;;;;4201747;28;20579;-77
2024/02/26 02:26:52;;;;;;;16.83;8.77;;;2.80;99.90;;;;;;4201469;28;20450;-78
2024/02/26 02:28:54;;;;;;;18.90;9.60;;;2.80;99.90;;;;;;4197067;28;20464;-77
2024/02/26 02:30:57;;;;;;;16.07;8.17;;;2.80;99.90;;;;;;4197263;28;21034;-77
2024/02/26 02:33:01;;;;;;;16.60;8.20;;;2.80;99.90;;;;;;4194088;28;20563;-77
2024/02/26 02:35:04;;;;;;;17.67;8.77;;;2.70;99.90;;;;;;4183911;28;20855;-77
2024/02/26 02:37:08;;;;;;;16.60;7.93;;;2.70;99.90;;;;;;4183043;28;20957;-78
2024/02/26 02:39:10;;;;;;;17.33;9.10;;;2.70;99.90;;;;;;4187903;28;20499;-78
2024/02/26 02:41:11;;;;;;;18.00;8.27;;;2.70;99.90;;;;;;4193141;28;20442;-77
2024/02/26 02:43:13;;;;;;;17.37;9.43;;;2.70;99.90;;;;;;4188191;28;20429;-77
2024/02/26 02:45:17;;;;;;;17.70;8.93;;;2.70;99.90;;;;;;4188898;28;20464;-77
2024/02/26 02:47:19;;;;;;;16.13;8.67;;;2.70;99.90;;;;;;4207697;28;20826;-78
2024/02/26 02:49:22;;;;;;;17.37;8.37;;;2.60;99.90;;;;;;4190907;28;20474;-77
2024/02/26 02:51:24;;;;;;;18.67;8.80;;;2.60;99.90;;;;;;4190825;28;20471;-78
2024/02/26 02:53:27;;;;;;;15.30;7.90;;;2.60;99.90;;;;;;4193451;28;20471;-78
2024/02/26 02:55:30;;;;;;;14.17;7.90;;;2.60;99.90;;;;;;4186518;28;20449;-77
2024/02/26 02:57:33;;;;;;;18.23;8.47;;;2.60;99.90;;;;;;4190078;28;20453;-77
2024/02/26 02:59:39;;;;;;;16.43;8.77;;;2.60;99.90;;;;;;4191986;28;20440;-77
2024/02/26 03:01:41;;;;;;;16.73;9.00;;;2.60;99.90;;;;;;4190083;28;20468;-77
2024/02/26 03:03:43;;;;;;;17.47;8.50;;;2.90;99.90;;;;;;4191370;28;20927;-77
2024/02/26 03:05:45;;;;;;;18.40;9.63;;;2.50;99.90;;;;;;4192719;28;20527;-77
2024/02/26 03:07:46;;;;;;;16.67;8.47;;;2.50;99.90;;;;;;4187739;28;20450;-77
2024/02/26 03:09:50;;;;;;;16.40;7.90;;;2.50;99.90;;;;;;4196955;28;20464;-78
2024/02/26 03:11:52;;;;;;;15.00;8.27;;;2.50;99.90;;;;;;4195811;28;20602;-78
2024/02/26 03:13:53;;;;;;;13.40;7.40;;;2.50;99.90;;;;;;4190567;28;20463;-78
2024/02/26 03:15:55;;;;;;;15.10;7.97;;;2.50;99.90;;;;;;4187629;28;20525;-78
2024/02/26 03:17:57;;;;;;;14.50;7.47;;;2.50;99.90;;;;;;4184423;28;20453;-78
2024/02/26 03:19:59;;;;;;;14.97;7.70;;;2.40;99.90;;;;;;4188756;28;20461;-78
2024/02/26 03:22:02;;;;;;;17.13;8.43;;;2.40;99.90;;;;;;4186947;28;20461;-78
2024/02/26 03:24:04;;;;;;;15.13;8.37;;;2.40;99.90;;;;;;4184769;28;20921;-77
2024/02/26 03:26:08;;;;;;;17.47;8.73;;;2.40;99.90;;;;;;4194296;28;20453;-78
2024/02/26 03:28:10;;;;;;;18.87;8.87;;;2.30;99.90;;;;;;4187167;28;20476;-78
2024/02/26 03:30:12;;;;;;;15.40;7.83;;;2.40;99.90;;;;;;4179082;28;20449;-77
2024/02/26 03:32:13;;;;;;;15.23;7.57;;;2.40;99.90;;;;;;4185469;28;20479;-78
2024/02/26 03:34:19;;;;;;;19.33;10.13;;;2.30;99.90;;;;;;4184523;28;20572;-77
2024/02/26 03:36:22;;;;;;;19.73;9.73;;;2.30;99.90;;;;;;4184520;28;20450;-77
2024/02/26 03:38:23;;;;;;;18.17;9.10;;;2.30;99.90;;;;;;4190879;28;21170;-78
2024/02/26 03:40:25;;;;;;;22.80;10.93;;;2.30;99.90;;;;;;4185974;28;20460;-78
2024/02/26 03:42:28;;;;;;;19.07;10.33;;;2.30;99.90;;;;;;4186120;28;20635;-77
2024/02/26 03:44:30;;;;;;;20.73;11.13;;;2.30;99.90;;;;;;4186290;28;20465;-77
2024/02/26 03:46:32;;;;;;;22.97;11.43;;;2.30;99.90;;;;;;4183534;28;21089;-77
2024/02/26 03:48:34;;;;;;;27.50;13.57;;;2.70;99.90;;;;;;4191538;28;20448;-77
2024/02/26 03:50:35;;;;;;;29.20;13.83;;;2.30;99.90;;;;;;4188055;28;20457;-77
2024/02/26 03:52:37;;;;;;;27.70;13.73;;;2.30;99.90;;;;;;4188598;28;20476;-76
2024/02/26 03:54:39;;;;;;;28.43;13.77;;;2.30;99.90;;;;;;4186290;28;20901;-77
2024/02/26 03:56:41;;;;;;;30.93;14.80;;;2.40;99.90;;;;;;4185079;28;20449;-77
2024/02/26 03:58:49;;;;;;;33.93;15.90;;;2.40;99.90;;;;;;4185600;28;20456;-77
2024/02/26 04:00:51;;;;;;;29.33;14.10;;;2.40;99.90;;;;;;4188963;28;20436;-77
2024/02/26 04:02:53;;;;;;;29.80;15.23;;;2.30;99.90;;;;;;4186478;28;20499;-77
2024/02/26 04:04:55;;;;;;;29.17;14.23;;;2.30;99.90;;;;;;4183577;28;20477;-77
2024/02/26 04:06:57;;;;;;;31.13;14.87;;;2.30;99.90;;;;;;4186548;28;20457;-77
2024/02/26 04:08:59;;;;;;;31.30;15.37;;;2.30;99.90;;;;;;4183253;28;20487;-77
2024/02/26 04:11:00;;;;;;;37.57;16.03;;;2.30;99.90;;;;;;4184987;28;20445;-77
2024/02/26 04:13:03;;;;;;;29.03;16.23;;;2.30;99.90;;;;;;4188612;28;20475;-77
2024/02/26 04:15:08;;;;;;;30.30;15.30;;;2.30;99.90;;;;;;4190031;28;20921;-77
2024/02/26 04:17:11;;;;;;;31.57;15.77;;;2.30;99.90;;;;;;4190886;28;20488;-77
2024/02/26 04:19:13;;;;;;;35.47;16.17;;;2.30;99.90;;;;;;4190694;28;20443;-77
2024/02/26 04:21:15;;;;;;;30.60;15.60;;;2.30;99.90;;;;;;4190318;28;20461;-77
2024/02/26 04:23:16;;;;;;;30.67;16.03;;;2.20;99.90;;;;;;4191280;28;20483;-77
2024/02/26 04:25:18;;;;;;;33.83;16.90;;;2.20;99.90;;;;;;4187429;28;21023;-77
2024/02/26 04:27:20;;;;;;;32.93;16.27;;;2.20;99.90;;;;;;4185590;28;20527;-77
2024/02/26 04:29:22;;;;;;;33.53;15.50;;;2.20;99.90;;;;;;4188316;28;20444;-77
2024/02/26 04:31:26;;;;;;;33.40;16.67;;;2.20;99.90;;;;;;4188856;28;20519;-77
2024/02/26 04:33:26;;;;;;;34.67;16.80;;;2.20;99.90;;;;;;4189234;28;20550;-76
2024/02/26 04:35:28;;;;;;;31.60;16.03;;;2.20;99.90;;;;;;4190409;28;20976;-76
2024/02/26 04:37:31;;;;;;;31.07;15.90;;;2.10;99.90;;;;;;4191439;28;20664;-76
2024/02/26 04:39:33;;;;;;;31.13;16.20;;;2.10;99.90;;;;;;4190740;28;20452;-76
2024/02/26 04:41:35;;;;;;;30.03;15.67;;;2.10;99.90;;;;;;4191810;28;20948;-76
2024/02/26 04:43:57;;;;;;;32.20;15.70;;;2.10;99.90;;;;;;4213578;28;20440;-76
2024/02/26 04:46:22;;;;;;;35.90;16.53;;;2.10;99.90;;;;;;4202801;28;20441;-77
2024/02/26 04:48:25;;;;;;;28.97;15.57;;;2.10;99.90;;;;;;4203278;28;20463;-78
2024/02/26 04:50:27;;;;;;;35.57;16.63;;;2.10;99.90;;;;;;4186796;28;20483;-78
2024/02/26 04:52:29;;;;;;;35.50;16.53;;;2.10;99.90;;;;;;4184302;28;20530;-78
2024/02/26 04:54:31;;;;;;;36.67;16.30;;;2.10;99.90;;;;;;4183422;28;20473;-78
2024/02/26 04:56:33;;;;;;;41.67;17.77;;;2.10;99.90;;;;;;4187036;28;20896;-78
2024/02/26 04:58:34;;;;;;;33.93;16.47;;;2.20;99.90;;;;;;4188783;28;20460;-78
2024/02/26 05:00:36;;;;;;;34.77;16.80;;;2.10;99.90;;;;;;4181998;28;20461;-82
2024/02/26 05:02:38;;;;;;;33.30;16.20;;;2.10;99.90;;;;;;4186021;28;20502;-80
2024/02/26 05:04:43;;;;;;;36.87;17.50;;;2.30;99.90;;;;;;4186650;28;20570;-78
2024/02/26 05:06:45;;;;;;;36.67;17.60;;;2.40;99.90;;;;;;4186198;28;20443;-78
2024/02/26 05:08:47;;;;;;;34.00;17.00;;;2.50;99.90;;;;;;4183090;28;20521;-78
2024/02/26 05:10:50;;;;;;;36.50;17.03;;;2.20;99.90;;;;;;4185744;28;20440;-78
2024/02/26 05:12:52;;;;;;;32.20;15.27;;;2.20;99.90;;;;;;4182887;28;20575;-78
2024/02/26 05:14:56;;;;;;;34.53;16.13;;;2.20;99.90;;;;;;4185075;28;20534;-78
2024/02/26 05:16:58;;;;;;;32.27;16.37;;;2.10;99.90;;;;;;4183150;28;20539;-78
2024/02/26 05:19:00;;;;;;;33.20;16.43;;;2.10;99.90;;;;;;4185129;28;20483;-78
2024/02/26 05:21:03;;;;;;;32.63;16.80;;;2.10;99.90;;;;;;4188939;28;20461;-79
2024/02/26 05:23:05;;;;;;;32.33;16.23;;;2.10;99.90;;;;;;4185306;28;20476;-79
2024/02/26 05:25:08;;;;;;;32.50;16.70;;;2.10;99.90;;;;;;4187112;28;20536;-79
2024/02/26 05:27:11;;;;;;;34.27;16.37;;;2.10;99.90;;;;;;4181518;28;20506;-79
2024/02/26 05:29:14;;;;;;;29.87;15.33;;;2.20;99.90;;;;;;4182769;28;20452;-78
2024/02/26 05:31:16;;;;;;;32.80;16.07;;;2.10;99.90;;;;;;4192298;28;20444;-78
2024/02/26 05:33:18;;;;;;;37.00;16.03;;;2.10;99.90;;;;;;4185305;28;21066;-78
2024/02/26 05:35:20;;;;;;;34.17;16.27;;;2.10;99.90;;;;;;4192004;28;20523;-78
2024/02/26 05:37:23;;;;;;;34.83;16.63;;;2.10;99.90;;;;;;4187152;28;20453;-78
2024/02/26 05:39:24;;;;;;;31.80;15.03;;;2.10;99.90;;;;;;4190012;28;20452;-78
2024/02/26 05:41:26;;;;;;;35.97;16.23;;;2.10;99.90;;;;;;4191125;28;21010;-78
2024/02/26 05:43:29;;;;;;;32.60;15.70;;;2.10;99.90;;;;;;4200736;28;20456;-78
2024/02/26 05:45:32;;;;;;;30.50;15.67;;;2.80;99.90;;;;;;4203732;28;20444;-79
2024/02/26 05:47:33;;;;;;;35.20;16.17;;;2.10;99.90;;;;;;4195814;28;21226;-78
2024/02/26 05:49:35;;;;;;;31.67;16.00;;;2.10;99.90;;;;;;4189890;28;20524;-76
2024/02/26 05:51:37;;;;;;;30.13;16.10;;;2.10;99.90;;;;;;4190897;28;20502;-77
2024/02/26 05:53:41;;;;;;;30.47;15.07;;;2.00;99.90;;;;;;4184885;28;20569;-77
2024/02/26 05:55:43;;;;;;;32.47;15.30;;;2.00;99.90;;;;;;4189308;28;20448;-76
2024/02/26 05:57:45;;;;;;;31.47;15.90;;;2.10;99.90;;;;;;4183130;28;20478;-77
2024/02/26 05:59:47;;;;;;;30.70;15.47;;;2.00;99.90;;;;;;4188974;28;20452;-77
2024/02/26 06:01:49;;;;;;;28.77;15.20;;;2.10;99.90;;;;;;4185623;28;20440;-77
2024/02/26 06:03:51;;;;;;;30.23;15.20;;;2.00;99.90;;;;;;4186819;28;20480;-77
2024/02/26 06:05:53;;;;;;;33.53;16.33;;;1.70;99.90;;;;;;4185042;28;20496;-78
2024/02/26 06:07:58;;;;;;;32.57;15.97;;;2.00;99.90;;;;;;4186178;28;20444;-83
2024/02/26 06:10:02;;;;;;;27.70;14.80;;;2.00;99.90;;;;;;4192547;28;20569;-82
2024/02/26 06:12:04;;;;;;;28.50;14.87;;;2.00;99.90;;;;;;4195969;28;20475;-79
2024/02/26 06:14:06;;;;;;;31.87;16.23;;;2.00;99.90;;;;;;4192066;28;20478;-77
2024/02/26 06:16:09;;;;;;;34.27;16.17;;;2.00;99.90;;;;;;4173196;28;20497;-77
2024/02/26 06:18:11;;;;;;;30.97;15.23;;;2.00;99.90;;;;;;4178591;28;20548;-76
2024/02/26 06:20:13;;;;;;;34.80;15.87;;;2.10;99.90;;;;;;4187548;28;20517;-76
2024/02/26 06:22:15;;;;;;;29.73;15.57;;;2.00;99.90;;;;;;4184434;28;20452;-76
2024/02/26 06:24:17;;;;;;;31.27;15.53;;;2.00;99.90;;;;;;4186828;28;20914;-76
2024/02/26 06:26:20;;;;;;;33.57;15.83;;;2.10;99.90;;;;;;4181843;28;20514;-76
2024/02/26 06:28:22;;;;;;;28.57;14.93;;;2.10;99.90;;;;;;4186728;28;20440;-77
2024/02/26 06:30:24;;;;;;;34.47;16.23;;;2.10;99.90;;;;;;4189047;28;20494;-76
2024/02/26 06:32:27;;;;;;;32.73;16.20;;;2.10;99.90;;;;;;4193080;28;20448;-76
2024/02/26 06:34:28;;;;;;;29.37;15.60;;;2.10;99.90;;;;;;4186462;28;20542;-76
2024/02/26 06:36:31;;;;;;;30.67;15.37;;;2.10;99.90;;;;;;4186028;28;20814;-75
2024/02/26 06:38:33;;;;;;;32.53;15.53;;;2.20;99.90;;;;;;4190922;28;20657;-76
2024/02/26 06:40:35;;;;;;;30.47;14.97;;;2.10;99.90;;;;;;4189464;28;20459;-76
2024/02/26 06:42:38;;;;;;;29.37;14.87;;;2.20;99.90;;;;;;4189950;28;20456;-76
2024/02/26 06:44:40;;;;;;;30.63;14.83;;;2.30;99.90;;;;;;4184066;28;20492;-75
2024/02/26 06:46:42;;;;;;;32.30;14.43;;;2.20;99.90;;;;;;4191360;28;20454;-75
2024/02/26 06:48:44;;;;;;;27.07;14.27;;;2.20;99.90;;;;;;4180058;28;20491;-75
2024/02/26 06:50:46;;;;;;;36.10;17.03;;;2.20;99.90;;;;;;4187973;28;20504;-75
2024/02/26 06:52:48;;;;;;;30.90;16.00;;;2.20;99.90;;;;;;4196956;28;20456;-75
2024/02/26 06:54:51;;;;;;;28.30;15.70;;;2.20;99.90;;;;;;4193802;28;20476;-75
2024/02/26 06:56:53;;;;;;;29.50;14.97;;;2.30;99.90;;;;;;4192157;28;20484;-75
2024/02/26 06:58:56;;;;;;;29.40;14.83;;;2.30;99.90;;;;;;4194525;28;20855;-75
2024/02/26 07:00:58;;;;;;;27.77;14.70;;;2.30;99.90;;;;;;4189953;28;20456;-77
2024/02/26 07:03:00;;;;;;;27.47;14.07;;;2.40;99.90;;;;;;4192665;28;20547;-76
2024/02/26 07:05:01;;;;;;;26.57;13.63;;;2.40;99.90;;;;;;4192259;28;20468;-76
2024/02/26 07:07:03;;;;;;;30.97;14.27;;;2.50;99.90;;;;;;4187596;28;20853;-75
2024/02/26 07:09:05;;;;;;;23.67;12.97;;;2.50;99.90;;;;;;4187478;28;20666;-75
2024/02/26 07:11:09;;;;;;;24.80;13.90;;;2.50;99.90;;;;;;4183226;28;20461;-76
2024/02/26 07:13:11;;;;;;;25.97;12.93;;;2.60;99.90;;;;;;4183720;28;20888;-75
2024/02/26 07:15:14;;;;;;;25.90;13.17;;;2.70;99.90;;;;;;4188408;28;20465;-76
2024/02/26 07:17:17;;;;;;;30.17;14.00;;;2.70;99.90;;;;;;4187519;28;20467;-75
2024/02/26 07:19:18;;;;;;;25.40;13.07;;;2.70;99.90;;;;;;4183117;28;20472;-76
2024/02/26 07:21:20;;;;;;;25.03;13.20;;;2.70;99.90;;;;;;4187311;28;20480;-76
2024/02/26 07:23:22;;;;;;;24.87;13.20;;;2.80;99.90;;;;;;4186446;28;21748;-76
2024/02/26 07:25:25;;;;;;;26.83;13.40;;;2.90;99.90;;;;;;4188242;28;20468;-76
2024/02/26 07:27:26;;;;;;;24.70;13.37;;;2.90;99.90;;;;;;4188923;28;20505;-76
2024/02/26 07:29:28;;;;;;;24.90;12.97;;;3.00;99.90;;;;;;4189128;28;20896;-76
2024/02/26 07:31:32;;;;;;;23.67;13.53;;;3.00;99.90;;;;;;4190513;28;20506;-76
2024/02/26 07:33:33;;;;;;;27.43;13.67;;;3.20;99.90;;;;;;4185009;28;20501;-75
2024/02/26 07:35:36;;;;;;;26.63;14.03;;;3.20;99.90;;;;;;4188951;28;20433;-75
2024/02/26 07:37:38;;;;;;;23.67;12.47;;;3.30;99.90;;;;;;4193503;28;20883;-76
2024/02/26 07:39:40;;;;;;;22.47;12.80;;;3.40;99.90;;;;;;4190404;28;20448;-76
2024/02/26 07:41:46;;;;;;;25.17;13.40;;;3.40;99.90;;;;;;4192650;28;20465;-76
2024/02/26 07:43:48;;;;;;;22.50;13.27;;;3.40;99.90;;;;;;4187115;28;20849;-76
2024/02/26 07:45:50;;;;;;;23.23;12.47;;;3.60;99.90;;;;;;4187368;28;20451;-76
2024/02/26 07:47:53;;;;;;;23.63;12.23;;;3.60;99.90;;;;;;4188081;28;20528;-76
2024/02/26 07:49:55;;;;;;;25.57;13.10;;;3.70;99.90;;;;;;4185161;28;20518;-76
2024/02/26 07:51:58;;;;;;;25.97;13.60;;;3.70;99.90;;;;;;4190928;28;20503;-76
2024/02/26 07:54:00;;;;;;;25.27;13.00;;;3.80;99.90;;;;;;4191090;28;20490;-76
2024/02/26 07:56:03;;;;;;;25.07;12.97;;;3.80;99.90;;;;;;4185283;28;20466;-76
2024/02/26 07:58:05;;;;;;;22.87;12.90;;;3.80;99.90;;;;;;4185171;28;20493;-76
2024/02/26 08:00:09;;;;;;;20.50;11.90;;;3.80;99.90;;;;;;4187765;28;20527;-76
2024/02/26 08:02:10;;;;;;;23.93;12.57;;;3.90;99.90;;;;;;4191146;28;20446;-75
2024/02/26 08:04:14;;;;;;;27.53;12.20;;;3.90;99.90;;;;;;4187675;28;20548;-76
2024/02/26 08:06:17;;;;;;;25.80;12.10;;;3.90;99.90;;;;;;4186725;28;20442;-76
2024/02/26 08:08:19;;;;;;;24.70;11.47;;;4.00;99.90;;;;;;4193955;28;20966;-76
2024/02/26 08:10:21;;;;;;;25.77;12.60;;;4.00;99.90;;;;;;4184458;28;20512;-76
2024/02/26 08:12:23;;;;;;;20.60;11.80;;;4.00;99.90;;;;;;4186046;28;20932;-76
2024/02/26 08:14:24;;;;;;;23.00;12.43;;;4.10;99.90;;;;;;4185485;28;20486;-75
2024/02/26 08:16:27;;;;;;;22.03;11.53;;;4.10;99.90;;;;;;4185597;28;20467;-75
2024/02/26 08:18:27;;;;;;;29.13;11.17;;;4.10;99.90;;;;;;4186163;28;20449;-76
2024/02/26 08:20:31;;;;;;;23.17;11.17;;;4.20;99.90;;;;;;4186340;28;20448;-76
2024/02/26 08:22:33;;;;;;;21.50;10.90;;;4.20;99.90;;;;;;4183738;28;20493;-76
2024/02/26 08:24:34;;;;;;;21.97;10.40;;;4.30;99.90;;;;;;4183337;28;20490;-75
2024/02/26 08:26:36;;;;;;;21.37;10.60;;;4.30;99.90;;;;;;4182217;28;20454;-76
2024/02/26 08:28:38;;;;;;;17.13;10.10;;;4.40;99.90;;;;;;4186178;28;20204;-75
2024/02/26 08:30:40;;;;;;;20.37;10.40;;;4.40;99.90;;;;;;4184358;28;20503;-76
2024/02/26 08:32:42;;;;;;;17.97;9.97;;;4.50;99.90;;;;;;4187239;28;20447;-76
2024/02/26 08:34:44;;;;;;;18.87;10.63;;;4.60;99.90;;;;;;4185346;28;20940;-76
2024/02/26 08:36:48;;;;;;;17.43;9.97;;;4.70;99.90;;;;;;4181915;28;20895;-75
2024/02/26 08:38:50;;;;;;;22.77;10.23;;;4.80;99.90;;;;;;4184536;28;20935;-76
2024/02/26 08:40:52;;;;;;;20.27;10.80;;;4.80;99.90;;;;;;4184024;28;20468;-76
2024/02/26 08:42:55;;;;;;;20.67;11.17;;;4.90;99.90;;;;;;4189699;28;20949;-76
2024/02/26 08:45:00;;;;;;;19.37;10.40;;;5.00;99.90;;;;;;4188917;28;20919;-75
2024/02/26 08:47:02;;;;;;;16.07;9.97;;;5.10;99.90;;;;;;4187796;28;20445;-75
2024/02/26 08:49:04;;;;;;;17.27;10.07;;;5.30;99.90;;;;;;4184857;28;20439;-75
2024/02/26 08:51:07;;;;;;;19.53;9.47;;;5.40;99.90;;;;;;4183245;28;20939;-76
2024/02/26 08:53:10;;;;;;;15.90;10.00;;;5.50;99.90;;;;;;4185954;28;20534;-75
2024/02/26 08:55:13;;;;;;;17.37;9.10;;;5.60;99.90;;;;;;4183666;28;20491;-76
2024/02/26 08:57:15;;;;;;;18.40;9.93;;;5.70;99.90;;;;;;4186556;28;20579;-75
2024/02/26 08:59:22;;;;;;;15.83;8.63;;;5.80;99.90;;;;;;4188710;28;20498;-76
2024/02/26 09:01:23;;;;;;;19.20;10.40;;;5.90;99.90;;;;;;4186697;28;21071;-75
2024/02/26 09:03:26;;;;;;;17.57;9.57;;;6.10;99.90;;;;;;4189508;28;20450;-76
2024/02/26 09:05:27;;;;;;;17.20;9.37;;;6.10;99.90;;;;;;4189859;28;20471;-75
2024/02/26 09:07:29;;;;;;;16.90;8.73;;;6.30;99.90;;;;;;4187527;28;20293;-76
2024/02/26 09:09:33;;;;;;;15.77;8.27;;;6.40;99.90;;;;;;4185909;28;20199;-76
2024/02/26 09:11:35;;;;;;;18.90;9.23;;;6.50;99.90;;;;;;4186588;28;20251;-77
2024/02/26 09:13:37;;;;;;;16.40;8.63;;;6.60;99.90;;;;;;4190877;28;20240;-75
2024/02/26 09:15:39;;;;;;;15.97;8.80;;;6.70;99.90;;;;;;4193569;28;20674;-76
2024/02/26 09:17:40;;;;;;;16.03;7.83;;;6.80;99.90;;;;;;4192569;28;20579;-76
2024/02/26 09:19:43;;;;;;;17.10;8.70;;;6.90;99.90;;;;;;4194835;28;20272;-76
2024/02/26 09:21:46;;;;;;;16.63;8.33;;;7.00;99.90;;;;;;4191989;28;20202;-76
2024/02/26 09:23:48;;;;;;;18.60;7.83;;;7.20;99.90;;;;;;4192227;28;20257;-75
2024/02/26 09:25:51;;;;;;;15.07;7.70;;;7.30;99.90;;;;;;4190071;28;20206;-75
2024/02/26 09:27:52;;;;;;;14.77;8.13;;;7.40;99.90;;;;;;4189046;28;20306;-76
2024/02/26 09:29:54;;;;;;;14.67;7.90;;;7.50;99.90;;;;;;4205384;28;20727;-75
2024/02/26 09:31:56;;;;;;;14.73;7.73;;;7.60;99.90;;;;;;4189353;28;20583;-76
2024/02/26 09:33:58;;;;;;;13.83;7.53;;;7.70;99.90;;;;;;4187156;28;20251;-75
2024/02/26 09:36:01;;;;;;;15.83;8.57;;;7.70;99.90;;;;;;4186914;28;20230;-75
2024/02/26 09:38:03;;;;;;;12.20;7.27;;;7.80;99.90;;;;;;4190078;28;20742;-76
2024/02/26 09:40:05;;;;;;;14.90;7.63;;;7.90;99.90;;;;;;4186524;28;20206;-75
2024/02/26 09:42:14;;;;;;;13.20;6.97;;;8.00;99.90;;;;;;4191264;28;20239;-75
2024/02/26 09:44:19;;;;;;;13.30;6.83;;;8.10;99.90;;;;;;4187555;28;20228;-77
2024/02/26 09:46:24;;;;;;;12.63;7.03;;;8.30;99.90;;;;;;4186731;28;20776;-75
2024/02/26 09:48:26;;;;;;;12.43;6.67;;;8.40;99.90;;;;;;4186800;28;20201;-75
2024/02/26 09:50:28;;;;;;;18.00;7.77;;;8.50;99.90;;;;;;4191241;28;20212;-75
2024/02/26 09:52:34;;;;;;;12.37;6.90;;;8.60;99.90;;;;;;4192500;28;20269;-75
2024/02/26 09:54:35;;;;;;;12.33;5.37;;;8.70;99.90;;;;;;4187789;28;20285;-75
2024/02/26 09:56:40;;;;;;;13.77;6.60;;;8.80;99.90;;;;;;4188740;28;20200;-75
2024/02/26 09:58:45;;;;;;;11.37;6.10;;;8.90;99.90;;;;;;4190147;28;20194;-75
2024/02/26 10:00:52;;;;;;;10.10;5.60;;;9.00;99.90;;;;;;4190633;28;20208;-76
2024/02/26 10:02:58;;;;;;;10.70;6.07;;;9.00;99.90;;;;;;4188637;28;20209;-76
2024/02/26 10:05:04;;;;;;;11.90;5.60;;;9.10;99.90;;;;;;4191117;28;20926;-77
2024/02/26 10:07:11;;;;;;;10.63;5.50;;;9.20;99.90;;;;;;4187132;28;20281;-77
2024/02/26 10:09:16;;;;;;;7.97;4.93;;;9.30;99.90;;;;;;4186427;28;20701;-76
2024/02/26 10:11:21;;;;;;;10.43;5.40;;;9.40;99.90;;;;;;4190387;28;20193;-76
2024/02/26 10:13:23;;;;;;;11.90;5.60;;;9.50;99.90;;;;;;4186978;28;20213;-76
2024/02/26 10:15:27;;;;;;;11.63;5.40;;;9.50;99.90;;;;;;4189773;28;20244;-76
2024/02/26 10:17:30;;;;;;;8.83;5.20;;;9.70;99.90;;;;;;4192181;28;20209;-76
2024/02/26 10:19:31;;;;;;;8.93;5.10;;;9.70;99.90;;;;;;4186296;28;20214;-75
2024/02/26 10:21:33;;;;;;;9.90;5.07;;;9.80;99.90;;;;;;4192294;28;20198;-77
2024/02/26 10:23:35;;;;;;;7.40;4.50;;;9.90;99.90;;;;;;4190372;28;20214;-76
2024/02/26 10:25:37;;;;;;;8.37;4.70;;;10.00;99.90;;;;;;4194368;28;20198;-76
2024/02/26 10:27:40;;;;;;;6.83;4.23;;;10.20;99.90;;;;;;4192698;28;20236;-76
2024/02/26 10:29:42;;;;;;;8.57;4.50;;;10.30;99.90;;;;;;4190305;28;20198;-74
2024/02/26 10:31:46;;;;;;;9.20;4.40;;;10.40;99.90;;;;;;4189898;28;20209;-74
2024/02/26 10:33:48;;;;;;;6.93;4.03;;;10.50;99.90;;;;;;4189494;28;20229;-78